createdAt,value
2022-10-18T00:00:27.263Z,10.20
2022-10-18T00:03:30.378Z,9.13
2022-10-18T00:06:34.483Z,9.52
2022-10-18T00:09:37.811Z,10.20
2022-10-18T00:12:42.145Z,10.15
2022-10-18T00:15:54.042Z,10.03
2022-10-18T00:18:57.587Z,10.82
2022-10-18T00:22:01.292Z,10.43
2022-10-18T00:25:06.560Z,10.07
2022-10-18T00:28:10.706Z,9.23
2022-10-18T00:31:26.191Z,9.33
2022-10-18T00:34:30.460Z,10.38
2022-10-18T00:37:34.239Z,10.02
2022-10-18T00:40:37.310Z,10.40
2022-10-18T00:43:54.755Z,10.02
2022-10-18T00:47:04.038Z,11.03
2022-10-18T00:50:09.729Z,11.18
2022-10-18T00:53:18.638Z,10.15
2022-10-18T00:56:21.979Z,11.02
2022-10-18T00:59:26.724Z,11.77
2022-10-18T01:02:30.757Z,12.33
2022-10-18T01:05:39.487Z,11.32
2022-10-18T01:09:11.476Z,11.15
2022-10-18T01:12:25.447Z,12.82
2022-10-18T01:16:06.008Z,13.10
2022-10-18T01:23:22.005Z,11.77
2022-10-18T01:26:31.437Z,16.38
2022-10-18T01:29:59.714Z,15.88
2022-10-18T01:33:20.972Z,16.35
2022-10-18T01:36:34.789Z,16.13
2022-10-18T01:39:41.124Z,15.90
2022-10-18T01:42:47.124Z,16.17
2022-10-18T01:45:51.973Z,16.70
2022-10-18T01:48:57.128Z,18.30
2022-10-18T01:52:01.230Z,18.93
2022-10-18T01:55:05.817Z,18.27
2022-10-18T01:58:27.909Z,16.63
2022-10-18T02:01:53.411Z,17.20
2022-10-18T02:05:29.629Z,17.15
2022-10-18T02:08:34.838Z,16.30
2022-10-18T02:11:41.470Z,18.63
2022-10-18T02:14:46.218Z,19.17
2022-10-18T02:17:51.383Z,17.83
2022-10-18T02:20:55.783Z,19.20
2022-10-18T02:24:01.881Z,18.40
2022-10-18T02:27:05.660Z,15.23
2022-10-18T02:30:10.065Z,14.93
2022-10-18T02:33:20.621Z,16.27
2022-10-18T02:36:28.624Z,16.33
2022-10-18T02:39:35.557Z,16.67
2022-10-18T02:42:44.798Z,16.03
2022-10-18T02:45:47.835Z,15.30
2022-10-18T02:48:50.822Z,17.27
2022-10-18T02:51:54.177Z,17.15
2022-10-18T02:54:57.727Z,14.00
2022-10-18T02:58:01.358Z,14.97
2022-10-18T03:01:04.399Z,14.07
2022-10-18T03:04:08.529Z,14.52
2022-10-18T03:07:11.632Z,13.63
2022-10-18T03:10:15.170Z,13.23
2022-10-18T03:13:18.266Z,14.40
2022-10-18T03:16:22.394Z,13.20
2022-10-18T03:19:26.178Z,12.60
2022-10-18T03:22:30.538Z,12.90
2022-10-18T03:25:35.176Z,12.93
2022-10-18T03:28:38.252Z,13.33
2022-10-18T03:31:41.229Z,12.85
2022-10-18T03:34:44.907Z,12.70
2022-10-18T03:37:47.950Z,11.88
2022-10-18T03:40:51.745Z,13.67
2022-10-18T03:43:55.351Z,14.30
2022-10-18T03:46:59.493Z,12.20
2022-10-18T03:50:02.515Z,17.90
2022-10-18T03:53:06.500Z,14.10
2022-10-18T03:56:10.765Z,12.60
2022-10-18T03:59:14.604Z,14.23
2022-10-18T04:02:18.474Z,11.55
2022-10-18T04:05:24.487Z,11.50
2022-10-18T04:08:28.104Z,11.63
2022-10-18T04:11:31.288Z,12.33
2022-10-18T04:14:35.364Z,12.63
2022-10-18T04:17:40.108Z,10.18
2022-10-18T04:20:43.025Z,11.13
2022-10-18T04:23:51.874Z,10.63
2022-10-18T04:26:55.476Z,10.90
2022-10-18T04:29:58.835Z,11.37
2022-10-18T04:33:01.900Z,11.10
2022-10-18T04:36:05.839Z,10.02
2022-10-18T04:39:08.736Z,9.90
2022-10-18T04:42:12.720Z,11.23
2022-10-18T04:45:15.755Z,9.80
2022-10-18T04:48:19.741Z,9.88
2022-10-18T04:51:23.757Z,9.48
2022-10-18T04:54:28.581Z,10.45
2022-10-18T04:57:32.576Z,10.07
2022-10-18T05:00:39.867Z,8.83
2022-10-18T05:03:43.150Z,11.07
2022-10-18T05:06:46.472Z,12.55
2022-10-18T05:09:49.616Z,11.55
2022-10-18T05:12:52.656Z,12.03
2022-10-18T05:15:56.006Z,13.27
2022-10-18T05:18:59.690Z,13.27
2022-10-18T05:22:02.832Z,13.48
2022-10-18T05:25:07.618Z,12.98
2022-10-18T05:28:27.168Z,13.03
2022-10-18T05:31:34.515Z,14.37
2022-10-18T05:34:38.108Z,13.57
2022-10-18T05:37:41.717Z,11.07
2022-10-18T05:40:45.449Z,12.82
2022-10-18T05:43:49.191Z,11.07
2022-10-18T05:46:52.956Z,10.43
2022-10-18T05:49:56.405Z,11.48
2022-10-18T05:53:07.003Z,11.13
2022-10-18T05:56:22.006Z,11.32
2022-10-18T05:59:26.191Z,11.87
2022-10-18T06:02:29.056Z,12.73
2022-10-18T06:05:32.147Z,13.02
2022-10-18T06:08:37.261Z,13.25
2022-10-18T06:11:40.903Z,13.07
2022-10-18T06:14:44.742Z,11.77
2022-10-18T06:17:48.443Z,12.37
2022-10-18T06:21:00.140Z,11.27
2022-10-18T06:24:03.821Z,10.65
2022-10-18T06:27:09.992Z,13.68
2022-10-18T06:30:13.824Z,12.47
2022-10-18T06:33:17.004Z,11.93
2022-10-18T06:36:24.659Z,11.70
2022-10-18T06:39:28.119Z,11.45
2022-10-18T06:42:32.336Z,11.32
2022-10-18T06:45:36.330Z,11.13
2022-10-18T06:48:41.069Z,11.63
2022-10-18T06:51:45.548Z,15.65
2022-10-18T06:54:48.508Z,13.48
2022-10-18T06:57:53.920Z,12.73
2022-10-18T07:00:56.990Z,12.63
2022-10-18T07:04:00.715Z,11.73
2022-10-18T07:07:03.759Z,10.63
2022-10-18T07:10:11.200Z,13.35
2022-10-18T07:13:33.081Z,11.20
2022-10-18T07:16:36.657Z,9.57
2022-10-18T07:19:40.020Z,26.83
2022-10-18T07:22:44.209Z,12.95
2022-10-18T07:25:47.905Z,14.30
2022-10-18T07:28:55.822Z,14.88
2022-10-18T07:31:59.458Z,14.53
2022-10-18T07:35:03.710Z,17.50
2022-10-18T07:38:07.421Z,16.55
2022-10-18T07:41:12.735Z,18.48
2022-10-18T07:44:16.558Z,19.70
2022-10-18T07:47:19.634Z,21.43
2022-10-18T07:50:23.082Z,21.33
2022-10-18T07:53:26.817Z,21.30
2022-10-18T07:56:30.776Z,21.75
2022-10-18T07:59:34.794Z,20.83
2022-10-18T08:02:38.604Z,22.80
2022-10-18T08:05:41.658Z,24.03
2022-10-18T08:08:45.311Z,22.90
2022-10-18T08:11:48.593Z,24.05
2022-10-18T08:14:51.643Z,26.02
2022-10-18T08:17:55.026Z,21.97
2022-10-18T08:20:59.863Z,21.93
2022-10-18T08:24:02.963Z,20.85
2022-10-18T08:27:06.869Z,22.13
2022-10-18T08:30:10.637Z,25.50
2022-10-18T08:33:14.439Z,24.50
2022-10-18T08:36:18.324Z,23.60
2022-10-18T08:39:21.428Z,25.70
2022-10-18T08:42:39.705Z,24.40
2022-10-18T08:45:44.749Z,27.42
2022-10-18T08:48:53.045Z,27.03
2022-10-18T08:51:57.482Z,26.27
2022-10-18T08:55:12.548Z,26.38
2022-10-18T08:58:21.604Z,26.08
2022-10-18T09:01:58.444Z,28.13
2022-10-18T09:05:06.755Z,27.90
2022-10-18T09:08:19.692Z,24.10
2022-10-18T09:11:47.872Z,23.27
2022-10-18T09:15:22.136Z,23.42
2022-10-18T09:18:32.091Z,26.33
2022-10-18T09:21:45.175Z,25.07
2022-10-18T09:25:13.468Z,23.47
2022-10-18T09:28:55.354Z,26.88
2022-10-18T09:32:09.014Z,24.48
2022-10-18T09:35:22.927Z,21.13
2022-10-18T09:38:31.939Z,36.80
2022-10-18T09:41:55.894Z,33.90
2022-10-18T09:45:15.302Z,35.00
2022-10-18T09:48:45.613Z,34.72
2022-10-18T09:51:52.172Z,35.20
2022-10-18T09:55:02.116Z,33.30
2022-10-18T09:58:08.673Z,33.63
2022-10-18T10:01:16.042Z,34.17
2022-10-18T10:04:19.930Z,34.03
2022-10-18T10:07:32.573Z,33.55
2022-10-18T10:10:41.195Z,33.43
2022-10-18T10:13:45.528Z,35.17
2022-10-18T10:16:53.173Z,33.40
2022-10-18T10:20:24.132Z,37.25
2022-10-18T10:23:33.074Z,45.75
2022-10-18T10:26:39.892Z,44.23
2022-10-18T10:29:46.980Z,46.50
2022-10-18T10:32:52.717Z,45.17
2022-10-18T10:36:00.926Z,44.15
2022-10-18T10:39:12.052Z,44.45
2022-10-18T10:42:16.781Z,47.23
2022-10-18T10:45:22.873Z,48.40
2022-10-18T10:48:31.119Z,56.00
2022-10-18T10:51:41.027Z,55.17
2022-10-18T10:54:51.357Z,48.05
2022-10-18T10:57:58.399Z,36.67
2022-10-18T11:01:21.562Z,41.53
2022-10-18T11:04:33.968Z,39.70
2022-10-18T11:07:49.043Z,40.97
2022-10-18T11:11:23.147Z,40.10
2022-10-18T11:14:34.746Z,39.77
2022-10-18T11:17:56.761Z,37.17
2022-10-18T11:21:14.465Z,40.00
2022-10-18T11:24:19.015Z,39.20
2022-10-18T11:27:26.386Z,39.13
2022-10-18T11:30:52.764Z,36.80
2022-10-18T11:34:15.978Z,33.73
2022-10-18T11:37:38.959Z,34.13
2022-10-18T11:41:06.611Z,38.08
2022-10-18T11:44:35.172Z,35.10
2022-10-18T11:47:53.701Z,35.10
2022-10-18T11:51:10.036Z,38.43
2022-10-18T11:54:29.442Z,31.80
2022-10-18T11:57:52.697Z,52.65
2022-10-18T12:01:28.703Z,75.13
2022-10-18T12:04:53.126Z,70.23
2022-10-18T12:08:12.677Z,62.83
2022-10-18T12:11:26.721Z,61.33
2022-10-18T12:14:59.225Z,52.17
2022-10-18T12:18:15.928Z,44.78
2022-10-18T12:21:25.896Z,39.83
2022-10-18T12:24:34.535Z,40.27
2022-10-18T12:28:03.570Z,40.78
2022-10-18T12:31:31.003Z,42.53
2022-10-18T12:34:56.366Z,42.63
2022-10-18T12:38:34.640Z,44.57
2022-10-18T12:41:42.054Z,44.87
2022-10-18T12:44:50.397Z,56.92
2022-10-18T12:48:23.612Z,61.75
2022-10-18T12:51:31.138Z,71.15
2022-10-18T12:54:41.399Z,67.73
2022-10-18T12:58:07.586Z,73.13
2022-10-18T13:01:16.146Z,65.20
2022-10-18T13:04:36.693Z,66.88
2022-10-18T13:07:45.312Z,62.78
2022-10-18T13:11:10.077Z,56.13
2022-10-18T13:14:48.311Z,56.33
2022-10-18T13:18:27.660Z,47.55
2022-10-18T13:21:45.698Z,42.47
2022-10-18T13:25:06.077Z,33.58
2022-10-18T13:28:19.090Z,25.40
2022-10-18T13:31:39.725Z,23.57
2022-10-18T13:34:44.066Z,25.27
2022-10-18T13:38:00.259Z,24.88
2022-10-18T13:41:09.038Z,24.13
2022-10-18T13:44:34.945Z,26.37
2022-10-18T13:47:39.707Z,27.43
2022-10-18T13:50:45.312Z,26.73
2022-10-18T13:54:39.608Z,27.00
2022-10-18T13:58:23.817Z,27.92
2022-10-18T14:02:30.687Z,19.67
2022-10-18T14:05:54.583Z,18.40
2022-10-18T14:09:40.196Z,17.85
2022-10-18T14:12:55.363Z,19.02
2022-10-18T14:16:26.794Z,20.70
2022-10-18T14:19:47.313Z,23.53
2022-10-18T14:23:14.806Z,24.43
2022-10-18T14:26:22.128Z,23.27
2022-10-18T14:29:26.895Z,20.45
2022-10-18T14:32:37.042Z,23.13
2022-10-18T14:35:47.829Z,25.20
2022-10-18T14:39:04.669Z,21.70
2022-10-18T14:42:22.811Z,24.77
2022-10-18T14:45:29.577Z,23.65
2022-10-18T14:48:34.411Z,40.30
2022-10-18T14:51:41.707Z,34.60
2022-10-18T14:54:46.445Z,37.37
2022-10-18T14:57:51.794Z,39.17
2022-10-18T15:00:56.867Z,37.35
2022-10-18T15:04:06.852Z,40.40
2022-10-18T15:07:17.649Z,41.40
2022-10-18T15:10:34.352Z,49.07
2022-10-18T15:13:45.444Z,53.60
2022-10-18T15:16:52.056Z,57.28
2022-10-18T15:20:47.446Z,57.65
2022-10-18T15:27:20.197Z,28.67
2022-10-18T15:30:30.373Z,21.95
2022-10-18T15:33:37.227Z,19.77
2022-10-18T15:36:41.047Z,23.55
2022-10-18T15:39:44.421Z,27.73
2022-10-18T15:42:47.493Z,31.70
2022-10-18T15:45:53.436Z,28.67
2022-10-18T15:49:19.948Z,32.30
2022-10-18T15:52:42.223Z,26.13
2022-10-18T15:55:48.932Z,42.40
2022-10-18T15:58:52.507Z,35.77
2022-10-18T16:01:56.166Z,37.20
2022-10-18T16:05:03.843Z,26.30
2022-10-18T16:08:07.444Z,22.00
2022-10-18T16:11:19.363Z,23.10
2022-10-18T16:14:23.348Z,21.27
2022-10-18T16:17:27.349Z,23.52
2022-10-18T16:20:31.373Z,27.30
2022-10-18T16:23:35.037Z,26.65
2022-10-18T16:26:39.185Z,31.73
2022-10-18T16:29:42.512Z,31.23
2022-10-18T16:32:47.310Z,32.10
2022-10-18T16:35:51.070Z,30.63
2022-10-18T16:38:56.107Z,30.50
2022-10-18T16:41:59.762Z,28.23
2022-10-18T16:45:03.125Z,23.60
2022-10-18T16:48:06.794Z,19.60
2022-10-18T16:51:11.682Z,18.67
2022-10-18T16:54:15.361Z,17.48
2022-10-18T16:57:18.220Z,16.37
2022-10-18T17:00:23.656Z,14.27
2022-10-18T17:03:27.942Z,12.80
2022-10-18T17:06:33.483Z,11.75
2022-10-18T17:09:37.573Z,11.82
2022-10-18T17:12:41.279Z,10.87
2022-10-18T17:15:44.593Z,10.32
2022-10-18T17:18:47.598Z,9.90
2022-10-18T17:21:50.825Z,9.00
2022-10-18T17:24:53.737Z,8.57
2022-10-18T17:27:57.817Z,8.33
2022-10-18T17:31:00.897Z,8.40
2022-10-18T17:34:05.595Z,8.15
2022-10-18T17:37:09.654Z,7.70
2022-10-18T17:40:14.268Z,7.30
2022-10-18T17:43:17.923Z,7.13
2022-10-18T17:46:22.006Z,7.18
2022-10-18T17:49:25.086Z,7.55
2022-10-18T17:52:28.328Z,6.88
2022-10-18T17:55:31.275Z,7.10
2022-10-18T17:58:36.155Z,6.40
2022-10-18T18:01:39.692Z,5.57
2022-10-18T18:04:44.059Z,5.47
2022-10-18T18:07:48.200Z,5.53
2022-10-18T18:10:56.277Z,5.72
2022-10-18T18:13:59.925Z,5.00
2022-10-18T18:17:03.970Z,5.45
2022-10-18T18:20:08.322Z,5.85
2022-10-18T18:23:12.263Z,5.40
2022-10-18T18:26:15.985Z,5.25
2022-10-18T18:29:19.346Z,4.93
2022-10-18T18:32:22.584Z,5.63
2022-10-18T18:35:25.854Z,5.55
2022-10-18T18:38:28.753Z,5.53
2022-10-18T18:41:33.430Z,5.00
2022-10-18T18:44:37.337Z,5.23
2022-10-18T18:47:40.948Z,5.47
2022-10-18T18:50:50.474Z,5.50
2022-10-18T18:53:54.308Z,4.90
2022-10-18T18:56:58.826Z,5.30
2022-10-18T19:00:02.474Z,4.77
2022-10-18T19:03:06.429Z,4.63
2022-10-18T19:06:14.265Z,3.90
2022-10-18T19:09:23.482Z,3.95
2022-10-18T19:12:26.764Z,5.07
2022-10-18T19:15:31.119Z,3.73
2022-10-18T19:18:35.908Z,3.80
2022-10-18T19:21:48.461Z,4.00
2022-10-18T19:24:52.084Z,5.05
2022-10-18T19:27:55.339Z,4.30
2022-10-18T19:30:59.517Z,4.37
2022-10-18T19:34:08.735Z,3.90
2022-10-18T19:37:13.456Z,3.63
2022-10-18T19:40:16.811Z,4.00
2022-10-18T19:43:19.672Z,3.55
2022-10-18T19:46:22.728Z,3.67
2022-10-18T19:49:26.361Z,3.30
2022-10-18T19:52:29.820Z,3.50
2022-10-18T19:55:35.523Z,4.20
2022-10-18T19:58:38.372Z,6.97
2022-10-18T20:01:41.435Z,8.17
2022-10-18T20:04:45.180Z,9.63
2022-10-18T20:07:48.189Z,7.63
2022-10-18T20:10:51.588Z,4.25
2022-10-18T20:13:56.660Z,7.13
2022-10-18T20:17:00.394Z,6.40
2022-10-18T20:20:04.516Z,4.00
2022-10-18T20:23:08.145Z,4.00
2022-10-18T20:26:18.178Z,3.95
2022-10-18T20:29:25.867Z,4.28
2022-10-18T20:32:29.970Z,3.80
2022-10-18T20:35:33.138Z,4.10
2022-10-18T20:38:38.526Z,4.10
2022-10-18T20:41:42.277Z,3.90
2022-10-18T20:44:47.863Z,3.92
2022-10-18T20:47:51.433Z,3.97
2022-10-18T20:50:55.443Z,4.07
2022-10-18T20:54:00.448Z,4.25
2022-10-18T20:57:04.835Z,4.15
2022-10-18T21:00:11.941Z,4.15
2022-10-18T21:03:15.860Z,4.30
2022-10-18T21:06:22.651Z,5.47
2022-10-18T21:09:26.209Z,3.97
2022-10-18T21:12:30.037Z,4.68
2022-10-18T21:15:34.032Z,4.57
2022-10-18T21:18:40.872Z,5.00
2022-10-18T21:21:46.728Z,4.60
2022-10-18T21:24:51.358Z,5.30
2022-10-18T21:27:55.658Z,5.10
2022-10-18T21:31:13.192Z,4.65
2022-10-18T21:34:18.491Z,4.70
2022-10-18T21:37:22.215Z,5.47
2022-10-18T21:40:25.589Z,4.78
2022-10-18T21:43:28.781Z,5.15
2022-10-18T21:46:32.774Z,4.72
2022-10-18T21:49:36.402Z,5.47
2022-10-18T21:52:40.323Z,5.80
2022-10-18T21:55:43.851Z,4.68
2022-10-18T21:58:47.326Z,4.72
2022-10-18T22:01:52.791Z,5.18
2022-10-18T22:04:55.821Z,5.07
2022-10-18T22:07:59.528Z,5.00
2022-10-18T22:11:03.915Z,4.90
2022-10-18T22:14:07.572Z,5.20
2022-10-18T22:17:11.475Z,5.30
2022-10-18T22:20:15.195Z,4.70
2022-10-18T22:23:18.447Z,5.50
2022-10-18T22:26:22.726Z,5.38
2022-10-18T22:29:26.375Z,5.18
2022-10-18T22:32:29.314Z,7.63
2022-10-18T22:35:35.117Z,7.17
2022-10-18T22:38:39.089Z,6.00
2022-10-18T22:41:43.906Z,5.88
2022-10-18T22:44:47.483Z,5.47
2022-10-18T22:47:51.076Z,5.78
2022-10-18T22:50:54.749Z,7.07
2022-10-18T22:53:58.471Z,5.70
2022-10-18T22:57:02.129Z,6.45
2022-10-18T23:00:06.774Z,8.18
2022-10-18T23:03:10.228Z,6.82
2022-10-18T23:06:22.818Z,6.93
2022-10-18T23:09:26.641Z,6.77
2022-10-18T23:12:29.641Z,6.57
2022-10-18T23:15:33.673Z,6.32
2022-10-18T23:18:36.953Z,6.50
2022-10-18T23:21:39.926Z,5.70
2022-10-18T23:24:43.178Z,5.60
2022-10-18T23:27:46.669Z,6.15
2022-10-18T23:30:50.623Z,5.57
2022-10-18T23:33:56.758Z,5.20
2022-10-18T23:37:00.320Z,5.53
2022-10-18T23:40:04.092Z,5.63
2022-10-18T23:43:07.637Z,4.68
2022-10-18T23:46:12.410Z,5.35
2022-10-18T23:49:15.775Z,6.25
2022-10-18T23:52:18.950Z,6.90
2022-10-18T23:55:22.585Z,5.37
2022-10-18T23:58:26.007Z,6.25
